Time;durP1;ratioP1;P1;durP2;ratioP2;P2;SDS_P1;SDS_P2;PMS_P1;PMS_P2;Temp;Humidity;BMP_temperature;BMP_pressure;BME280_temperature;BME280_humidity;BME280_pressure;Samples;Min_cycle;Max_cycle;Signal;HPM_P1;HPM_P2
2022/07/23 00:01:22;;;;;;;8.43;5.07;;;;;;;;;;6209451;23;20004;-74
2022/07/23 00:03:48;;;;;;;7.32;5.22;;;;;;;;;;6208737;23;20402;-74
2022/07/23 00:06:14;;;;;;;6.63;5.25;;;;;;;;;;6235746;23;20003;-74
2022/07/23 00:08:40;;;;;;;5.25;4.82;;;;;;;;;;6235425;23;20452;-75
2022/07/23 00:11:06;;;;;;;6.80;4.50;;;;;;;;;;6233669;23;20003;-74
2022/07/23 00:13:33;;;;;;;5.25;4.63;;;;;;;;;;6235347;23;20487;-74
2022/07/23 00:15:59;;;;;;;6.63;4.38;;;;;;;;;;6235656;23;19993;-74
2022/07/23 00:18:25;;;;;;;4.53;4.13;;;;;;;;;;6235846;23;20103;-73
2022/07/23 00:20:51;;;;;;;5.25;4.72;;;;;;;;;;6235998;23;20333;-74
2022/07/23 00:23:17;;;;;;;6.75;5.40;;;;;;;;;;6234096;23;20026;-75
2022/07/23 00:25:45;;;;;;;8.38;4.70;;;;;;;;;;6235662;23;20062;-74
2022/07/23 00:28:11;;;;;;;4.90;4.40;;;;;;;;;;6235103;23;20012;-74
2022/07/23 00:30:37;;;;;;;7.13;4.95;;;;;;;;;;6235461;23;20011;-75
2022/07/23 00:33:05;;;;;;;5.93;4.03;;;;;;;;;;6235110;23;20061;-74
2022/07/23 00:35:33;;;;;;;4.85;4.38;;;;;;;;;;6233424;23;20034;-74
2022/07/23 00:38:00;;;;;;;4.18;3.78;;;;;;;;;;6235580;23;20008;-73
2022/07/23 00:40:27;;;;;;;6.90;4.32;;;;;;;;;;6235602;23;20075;-75
2022/07/23 00:42:53;;;;;;;4.93;4.35;;;;;;;;;;6235000;23;20674;-75
2022/07/23 00:45:19;;;;;;;6.32;5.00;;;;;;;;;;6235879;23;19992;-75
2022/07/23 00:47:46;;;;;;;5.25;4.22;;;;;;;;;;6235352;23;20008;-75
2022/07/23 00:50:14;;;;;;;5.07;4.57;;;;;;;;;;6233556;23;19992;-76
2022/07/23 00:52:40;;;;;;;6.00;4.50;;;;;;;;;;6235526;23;20004;-76
2022/07/23 00:55:07;;;;;;;6.00;4.78;;;;;;;;;;6235699;23;20000;-75
2022/07/23 00:57:33;;;;;;;7.28;4.15;;;;;;;;;;6235350;22;20012;-75
2022/07/23 01:00:00;;;;;;;5.20;4.70;;;;;;;;;;6233418;23;19993;-76
2022/07/23 01:02:26;;;;;;;5.75;4.80;;;;;;;;;;6235520;23;20486;-75
2022/07/23 01:04:53;;;;;;;5.25;4.28;;;;;;;;;;6235720;23;20111;-76
2022/07/23 01:07:19;;;;;;;6.55;4.13;;;;;;;;;;6209725;23;20007;-76
2022/07/23 01:09:45;;;;;;;5.47;4.10;;;;;;;;;;6237508;23;20486;-76
2022/07/23 01:12:12;;;;;;;4.72;4.22;;;;;;;;;;6234882;23;19996;-78
2022/07/23 01:14:38;;;;;;;8.15;4.97;;;;;;;;;;6235970;23;20004;-76
2022/07/23 01:17:04;;;;;;;5.30;4.30;;;;;;;;;;6234308;23;20437;-78
2022/07/23 01:19:31;;;;;;;5.57;4.28;;;;;;;;;;6230483;23;20010;-77
2022/07/23 01:21:57;;;;;;;6.13;4.97;;;;;;;;;;6232606;23;20455;-76
2022/07/23 01:24:24;;;;;;;6.05;4.90;;;;;;;;;;6232298;23;20054;-75
2022/07/23 01:26:50;;;;;;;6.80;4.60;;;;;;;;;;6231484;23;20008;-75
2022/07/23 01:29:18;;;;;;;5.53;4.70;;;;;;;;;;6229715;23;20024;-76
2022/07/23 01:31:44;;;;;;;6.88;4.45;;;;;;;;;;6230660;23;20095;-75
2022/07/23 01:34:10;;;;;;;8.18;5.10;;;;;;;;;;6232137;23;20365;-74
2022/07/23 01:36:37;;;;;;;6.18;4.70;;;;;;;;;;6231651;23;20445;-75
2022/07/23 01:39:04;;;;;;;9.63;4.80;;;;;;;;;;6231423;23;20004;-76
2022/07/23 01:41:30;;;;;;;6.32;4.97;;;;;;;;;;6230747;23;20019;-75
2022/07/23 01:43:56;;;;;;;8.02;4.28;;;;;;;;;;6231679;23;20019;-74
2022/07/23 01:46:23;;;;;;;4.95;4.55;;;;;;;;;;6232370;23;20000;-76
2022/07/23 01:48:49;;;;;;;5.57;4.65;;;;;;;;;;6232327;23;20000;-76
2022/07/23 01:51:15;;;;;;;5.10;4.47;;;;;;;;;;6230435;23;20039;-75
2022/07/23 01:53:42;;;;;;;7.55;4.50;;;;;;;;;;6232860;23;20028;-79
2022/07/23 01:56:08;;;;;;;8.23;4.13;;;;;;;;;;6232473;23;20287;-76
2022/07/23 01:58:34;;;;;;;5.55;4.40;;;;;;;;;;6205595;23;20083;-77
2022/07/23 02:01:00;;;;;;;8.38;4.90;;;;;;;;;;6230509;23;20070;-75
2022/07/23 02:03:27;;;;;;;5.55;4.28;;;;;;;;;;6232317;23;20012;-76
2022/07/23 02:05:53;;;;;;;7.32;4.57;;;;;;;;;;6232451;23;20207;-75
2022/07/23 02:08:19;;;;;;;4.93;4.43;;;;;;;;;;6203856;23;20039;-75
2022/07/23 02:10:45;;;;;;;4.97;4.50;;;;;;;;;;6206398;23;20004;-75
2022/07/23 02:13:12;;;;;;;6.45;4.85;;;;;;;;;;6232645;23;20020;-75
2022/07/23 02:15:38;;;;;;;8.45;4.95;;;;;;;;;;6231958;23;20004;-75
2022/07/23 02:18:04;;;;;;;5.40;4.90;;;;;;;;;;6231781;23;20019;-75
2022/07/23 02:20:30;;;;;;;5.72;4.28;;;;;;;;;;6230671;23;20008;-75
2022/07/23 02:22:57;;;;;;;5.82;5.00;;;;;;;;;;6232622;23;20102;-75
2022/07/23 02:25:23;;;;;;;5.30;4.78;;;;;;;;;;6232103;23;20006;-75
2022/07/23 02:27:49;;;;;;;4.80;4.30;;;;;;;;;;6232033;23;20012;-75
2022/07/23 02:30:15;;;;;;;5.10;4.10;;;;;;;;;;6227968;23;20011;-75
2022/07/23 02:32:41;;;;;;;6.97;4.90;;;;;;;;;;6231973;23;20001;-76
2022/07/23 02:35:08;;;;;;;6.20;4.43;;;;;;;;;;6232313;23;20107;-75
2022/07/23 02:37:34;;;;;;;6.85;4.72;;;;;;;;;;6232129;23;20016;-75
2022/07/23 02:40:00;;;;;;;6.88;4.38;;;;;;;;;;6231521;23;20093;-75
2022/07/23 02:42:26;;;;;;;4.70;4.30;;;;;;;;;;6230083;23;20066;-77
2022/07/23 02:44:52;;;;;;;4.88;4.38;;;;;;;;;;6204615;23;20014;-75
2022/07/23 02:47:18;;;;;;;5.63;4.90;;;;;;;;;;6232721;23;20135;-75
2022/07/23 02:49:45;;;;;;;7.13;5.35;;;;;;;;;;6233398;23;20679;-75
2022/07/23 02:52:11;;;;;;;4.88;4.45;;;;;;;;;;6232171;23;20073;-75
2022/07/23 02:54:37;;;;;;;5.25;4.85;;;;;;;;;;6234380;23;20031;-76
2022/07/23 02:57:04;;;;;;;6.07;4.90;;;;;;;;;;6233359;22;20406;-75
2022/07/23 02:59:30;;;;;;;5.47;4.55;;;;;;;;;;6234258;23;20000;-75
2022/07/23 03:01:57;;;;;;;5.85;5.13;;;;;;;;;;6205478;23;20008;-75
2022/07/23 03:04:23;;;;;;;5.25;4.75;;;;;;;;;;6206692;23;20012;-74
2022/07/23 03:06:49;;;;;;;5.93;5.30;;;;;;;;;;6233446;23;20379;-74
2022/07/23 03:09:15;;;;;;;5.72;5.13;;;;;;;;;;6233523;23;20015;-74
2022/07/23 03:11:41;;;;;;;5.45;4.88;;;;;;;;;;6206251;23;20004;-74
2022/07/23 03:14:07;;;;;;;5.75;4.60;;;;;;;;;;6233270;23;20016;-75
2022/07/23 03:16:33;;;;;;;5.80;4.93;;;;;;;;;;6230898;23;20012;-74
2022/07/23 03:18:59;;;;;;;6.28;5.10;;;;;;;;;;6231334;23;20015;-75
2022/07/23 03:21:26;;;;;;;6.50;5.47;;;;;;;;;;6233774;23;20267;-75
2022/07/23 03:23:52;;;;;;;5.97;5.07;;;;;;;;;;6233237;23;20090;-74
2022/07/23 03:26:18;;;;;;;5.25;4.75;;;;;;;;;;6231660;23;20298;-75
2022/07/23 03:28:44;;;;;;;6.07;4.80;;;;;;;;;;6234040;23;20028;-75
2022/07/23 03:31:11;;;;;;;5.82;4.65;;;;;;;;;;6232843;23;20487;-75
2022/07/23 03:33:37;;;;;;;5.50;5.00;;;;;;;;;;6232921;23;20731;-76
2022/07/23 03:36:03;;;;;;;5.30;4.60;;;;;;;;;;6231352;23;20000;-76
2022/07/23 03:38:29;;;;;;;5.03;4.53;;;;;;;;;;6233490;23;20008;-78
2022/07/23 03:40:55;;;;;;;5.85;4.90;;;;;;;;;;6206508;23;20007;-78
2022/07/23 03:43:21;;;;;;;6.07;4.85;;;;;;;;;;6233079;23;20030;-76
2022/07/23 03:45:47;;;;;;;5.40;4.90;;;;;;;;;;6206192;23;20000;-77
2022/07/23 03:48:13;;;;;;;7.35;5.15;;;;;;;;;;6233125;23;20011;-77
2022/07/23 03:50:40;;;;;;;6.15;4.60;;;;;;;;;;6231496;23;20007;-78
2022/07/23 03:53:06;;;;;;;5.00;4.55;;;;;;;;;;6205878;23;20004;-77
2022/07/23 03:55:32;;;;;;;8.52;5.05;;;;;;;;;;6232564;23;19996;-78
2022/07/23 03:57:58;;;;;;;6.50;4.85;;;;;;;;;;6232826;22;20012;-77
2022/07/23 04:00:24;;;;;;;7.13;4.95;;;;;;;;;;6204043;23;20016;-75
2022/07/23 04:02:50;;;;;;;5.35;4.50;;;;;;;;;;6233014;23;20461;-78
2022/07/23 04:05:16;;;;;;;8.10;5.07;;;;;;;;;;6232554;23;20004;-77
2022/07/23 04:07:42;;;;;;;6.53;4.95;;;;;;;;;;6232969;23;20082;-77
2022/07/23 04:10:09;;;;;;;7.07;5.07;;;;;;;;;;6233031;23;20429;-77
2022/07/23 04:12:35;;;;;;;10.95;5.18;;;;;;;;;;6231099;23;20020;-78
2022/07/23 04:15:01;;;;;;;5.65;5.07;;;;;;;;;;6233661;23;20019;-76
2022/07/23 04:17:28;;;;;;;6.75;4.68;;;;;;;;;;6204421;23;20917;-77
2022/07/23 04:19:54;;;;;;;10.82;5.13;;;;;;;;;;6230387;23;20015;-76
2022/07/23 04:22:20;;;;;;;5.30;4.80;;;;;;;;;;6230094;23;20004;-77
2022/07/23 04:24:46;;;;;;;5.22;4.68;;;;;;;;;;6230237;23;20001;-77
2022/07/23 04:27:12;;;;;;;6.90;5.45;;;;;;;;;;6228270;23;20609;-76
2022/07/23 04:29:39;;;;;;;5.30;4.80;;;;;;;;;;6200929;23;20004;-77
2022/07/23 04:32:05;;;;;;;6.85;4.93;;;;;;;;;;6229842;23;20008;-78
2022/07/23 04:34:31;;;;;;;6.78;4.78;;;;;;;;;;6202351;23;20016;-77
2022/07/23 04:36:57;;;;;;;5.90;4.90;;;;;;;;;;6229550;23;20035;-77
2022/07/23 04:39:23;;;;;;;7.47;4.82;;;;;;;;;;6228336;23;20008;-78
2022/07/23 04:41:50;;;;;;;5.97;5.38;;;;;;;;;;6230323;23;20019;-77
2022/07/23 04:44:16;;;;;;;13.52;5.20;;;;;;;;;;6229906;23;20011;-77
2022/07/23 04:46:42;;;;;;;6.30;5.70;;;;;;;;;;6230188;23;20061;-76
2022/07/23 04:49:08;;;;;;;7.30;6.50;;;;;;;;;;6228883;23;20138;-77
2022/07/23 04:51:34;;;;;;;11.80;7.18;;;;;;;;;;6229523;23;20027;-75
2022/07/23 04:54:00;;;;;;;9.48;6.70;;;;;;;;;;6228094;23;20015;-77
2022/07/23 04:56:27;;;;;;;10.15;7.10;;;;;;;;;;6229043;22;19996;-76
2022/07/23 04:58:53;;;;;;;7.25;6.55;;;;;;;;;;6229967;23;20000;-77
2022/07/23 05:01:19;;;;;;;8.35;6.70;;;;;;;;;;6229364;23;20004;-77
2022/07/23 05:03:45;;;;;;;8.65;6.40;;;;;;;;;;6229802;23;20008;-76
2022/07/23 05:06:11;;;;;;;7.35;6.65;;;;;;;;;;6228366;23;20076;-77
2022/07/23 05:08:38;;;;;;;8.85;6.85;;;;;;;;;;6226748;23;20250;-74
2022/07/23 05:11:04;;;;;;;6.75;6.00;;;;;;;;;;6227407;23;20203;-76
2022/07/23 05:13:30;;;;;;;8.27;6.80;;;;;;;;;;6227358;23;20039;-73
2022/07/23 05:15:56;;;;;;;7.22;6.45;;;;;;;;;;6227649;23;20012;-74
2022/07/23 05:18:22;;;;;;;8.60;6.60;;;;;;;;;;6225224;23;20014;-74
2022/07/23 05:20:48;;;;;;;7.18;5.65;;;;;;;;;;6201385;23;20015;-74
2022/07/23 05:23:15;;;;;;;7.70;6.80;;;;;;;;;;6229667;23;20356;-74
2022/07/23 05:25:41;;;;;;;10.38;6.78;;;;;;;;;;6229449;23;20576;-74
2022/07/23 05:28:07;;;;;;;9.00;6.60;;;;;;;;;;6225024;23;20016;-74
2022/07/23 05:30:34;;;;;;;9.60;6.25;;;;;;;;;;6229173;23;20424;-74
2022/07/23 05:33:00;;;;;;;7.88;6.32;;;;;;;;;;6202887;23;20372;-73
2022/07/23 05:35:26;;;;;;;9.20;6.55;;;;;;;;;;6229070;23;20000;-73
2022/07/23 05:37:52;;;;;;;8.65;6.90;;;;;;;;;;6227500;23;20016;-73
2022/07/23 05:40:19;;;;;;;9.45;6.00;;;;;;;;;;6229474;23;20026;-73
2022/07/23 05:42:45;;;;;;;8.63;6.75;;;;;;;;;;6228732;23;20000;-73
2022/07/23 05:45:11;;;;;;;8.30;6.55;;;;;;;;;;6229359;23;20011;-73
2022/07/23 05:47:45;;;;;;;9.05;6.22;;;;;;;;;;6227284;23;20011;-73
2022/07/23 05:50:11;;;;;;;11.02;6.60;;;;;;;;;;6229588;23;20189;-73
2022/07/23 05:52:38;;;;;;;9.48;6.20;;;;;;;;;;6229119;23;20372;-73
2022/07/23 05:55:05;;;;;;;7.45;6.50;;;;;;;;;;6227651;23;20012;-73
2022/07/23 05:57:31;;;;;;;9.38;6.15;;;;;;;;;;6228717;22;20083;-73
2022/07/23 05:59:57;;;;;;;7.53;6.32;;;;;;;;;;6229069;23;20003;-73
2022/07/23 06:02:23;;;;;;;9.15;5.70;;;;;;;;;;6228913;23;20011;-73
2022/07/23 06:04:50;;;;;;;8.88;5.82;;;;;;;;;;6202450;23;20010;-73
2022/07/23 06:07:16;;;;;;;6.75;6.10;;;;;;;;;;6227213;23;20000;-74
2022/07/23 06:09:42;;;;;;;7.10;6.40;;;;;;;;;;6229657;23;20433;-73
2022/07/23 06:12:08;;;;;;;6.90;5.63;;;;;;;;;;6227662;23;20008;-74
2022/07/23 06:14:34;;;;;;;7.30;6.00;;;;;;;;;;6228667;23;20701;-73
2022/07/23 06:17:00;;;;;;;6.10;5.55;;;;;;;;;;6227967;23;20020;-74
2022/07/23 06:19:27;;;;;;;5.97;5.47;;;;;;;;;;6226198;23;20000;-74
2022/07/23 06:21:53;;;;;;;7.13;5.53;;;;;;;;;;6230053;23;20008;-74
2022/07/23 06:24:19;;;;;;;6.88;6.28;;;;;;;;;;6231741;23;20070;-74
2022/07/23 06:26:46;;;;;;;6.22;5.72;;;;;;;;;;6231059;23;20054;-74
2022/07/23 06:29:12;;;;;;;6.93;5.15;;;;;;;;;;6226722;23;20004;-74
2022/07/23 06:31:38;;;;;;;7.63;5.75;;;;;;;;;;6231343;23;20005;-74
2022/07/23 06:34:04;;;;;;;6.43;5.78;;;;;;;;;;6231251;23;20016;-74
2022/07/23 06:36:30;;;;;;;7.00;5.38;;;;;;;;;;6229259;23;20023;-74
2022/07/23 06:38:56;;;;;;;5.25;4.75;;;;;;;;;;6231039;23;20075;-74
2022/07/23 06:41:23;;;;;;;5.63;5.13;;;;;;;;;;6230741;23;20004;-74
2022/07/23 06:43:49;;;;;;;7.20;5.00;;;;;;;;;;6231044;23;20004;-74
2022/07/23 06:46:15;;;;;;;10.35;5.55;;;;;;;;;;6230407;23;20348;-74
2022/07/23 06:48:41;;;;;;;5.93;5.38;;;;;;;;;;6229374;23;20292;-73
2022/07/23 06:51:07;;;;;;;6.30;5.70;;;;;;;;;;6233205;23;20030;-74
2022/07/23 06:53:34;;;;;;;6.15;5.43;;;;;;;;;;6233122;23;20004;-73
2022/07/23 06:56:00;;;;;;;6.70;5.55;;;;;;;;;;6233439;23;20402;-73
2022/07/23 06:58:26;;;;;;;8.27;6.00;;;;;;;;;;6231924;22;20092;-73
2022/07/23 07:00:52;;;;;;;8.63;5.70;;;;;;;;;;6233150;23;20000;-73
2022/07/23 07:03:19;;;;;;;7.43;5.85;;;;;;;;;;6233702;23;20007;-72
2022/07/23 07:05:45;;;;;;;6.60;5.55;;;;;;;;;;6234002;23;20004;-71
2022/07/23 07:08:11;;;;;;;7.35;6.13;;;;;;;;;;6233760;23;20302;-71
2022/07/23 07:10:38;;;;;;;5.90;5.35;;;;;;;;;;6204357;23;20004;-71
2022/07/23 07:13:04;;;;;;;6.93;5.35;;;;;;;;;;6231450;23;20016;-72
2022/07/23 07:15:30;;;;;;;6.20;5.35;;;;;;;;;;6230777;23;20008;-71
2022/07/23 07:17:56;;;;;;;8.38;5.43;;;;;;;;;;6232063;23;20019;-72
2022/07/23 07:20:23;;;;;;;5.88;5.15;;;;;;;;;;6232066;23;20000;-71
2022/07/23 07:22:49;;;;;;;7.88;5.50;;;;;;;;;;6230182;23;20004;-71
2022/07/23 07:25:16;;;;;;;5.93;5.30;;;;;;;;;;6231400;23;19996;-72
2022/07/23 07:27:43;;;;;;;6.35;5.75;;;;;;;;;;6232063;23;20045;-71
2022/07/23 07:30:10;;;;;;;6.93;6.05;;;;;;;;;;6231848;23;20028;-72
2022/07/23 07:32:36;;;;;;;7.13;5.55;;;;;;;;;;6229741;23;20705;-71
2022/07/23 07:35:06;;;;;;;8.73;5.70;;;;;;;;;;6231203;23;20003;-72
2022/07/23 07:37:32;;;;;;;5.53;5.03;;;;;;;;;;6232277;23;20070;-72
2022/07/23 07:39:58;;;;;;;6.85;4.97;;;;;;;;;;6230578;23;20046;-72
2022/07/23 07:42:24;;;;;;;7.05;4.85;;;;;;;;;;6231477;23;20008;-72
2022/07/23 07:44:51;;;;;;;7.75;4.93;;;;;;;;;;6229086;23;20079;-71
2022/07/23 07:47:17;;;;;;;5.18;4.68;;;;;;;;;;6228105;23;20055;-71
2022/07/23 07:49:43;;;;;;;11.95;4.97;;;;;;;;;;6231315;23;20447;-72
2022/07/23 07:52:10;;;;;;;5.70;4.60;;;;;;;;;;6231471;23;20088;-71
2022/07/23 07:54:36;;;;;;;6.22;4.55;;;;;;;;;;6231331;23;20154;-71
2022/07/23 07:57:02;;;;;;;5.13;4.43;;;;;;;;;;6230116;22;20006;-71
2022/07/23 07:59:29;;;;;;;5.38;4.82;;;;;;;;;;6202305;23;20333;-71
2022/07/23 08:01:55;;;;;;;5.35;4.47;;;;;;;;;;6231011;23;20010;-72
2022/07/23 08:04:21;;;;;;;5.93;4.95;;;;;;;;;;6232334;23;20091;-73
2022/07/23 08:06:47;;;;;;;7.47;5.22;;;;;;;;;;6233306;23;20463;-75
2022/07/23 08:09:13;;;;;;;7.95;5.18;;;;;;;;;;6230414;23;20476;-76
2022/07/23 08:11:40;;;;;;;5.00;4.50;;;;;;;;;;6230607;23;20004;-75
2022/07/23 08:14:06;;;;;;;5.15;4.60;;;;;;;;;;6231273;23;20019;-73
2022/07/23 08:16:32;;;;;;;5.18;4.65;;;;;;;;;;6229365;23;20004;-72
2022/07/23 08:18:58;;;;;;;4.93;4.53;;;;;;;;;;6230627;23;20054;-73
2022/07/23 08:21:24;;;;;;;4.97;4.53;;;;;;;;;;6230318;23;20004;-70
2022/07/23 08:23:50;;;;;;;8.05;4.75;;;;;;;;;;6226629;23;20008;-73
2022/07/23 08:26:16;;;;;;;5.18;4.70;;;;;;;;;;6229168;23;20004;-74
2022/07/23 08:28:43;;;;;;;5.57;5.00;;;;;;;;;;6229635;23;20003;-73
2022/07/23 08:31:10;;;;;;;6.50;5.22;;;;;;;;;;6230646;23;20329;-73
2022/07/23 08:33:36;;;;;;;5.72;5.20;;;;;;;;;;6227819;23;20011;-70
2022/07/23 08:36:04;;;;;;;5.22;4.75;;;;;;;;;;6227570;23;20015;-74
2022/07/23 08:38:30;;;;;;;6.50;5.28;;;;;;;;;;6229567;23;20087;-72
2022/07/23 08:40:59;;;;;;;8.70;4.95;;;;;;;;;;6229364;23;20724;-73
2022/07/23 08:43:27;;;;;;;6.38;4.93;;;;;;;;;;6227408;23;20004;-73
2022/07/23 08:45:56;;;;;;;6.40;4.82;;;;;;;;;;6229340;23;20010;-74
2022/07/23 08:48:23;;;;;;;6.97;5.22;;;;;;;;;;6229333;23;20062;-72
2022/07/23 08:50:54;;;;;;;5.63;5.13;;;;;;;;;;6227584;23;20007;-71
2022/07/23 08:53:21;;;;;;;5.65;5.00;;;;;;;;;;6229599;23;20000;-72
2022/07/23 08:55:48;;;;;;;6.20;5.30;;;;;;;;;;6229434;22;20000;-72
2022/07/23 08:58:15;;;;;;;6.07;4.97;;;;;;;;;;6230016;23;20039;-70
2022/07/23 09:00:41;;;;;;;6.13;5.45;;;;;;;;;;6230138;23;20209;-70
2022/07/23 09:03:07;;;;;;;6.35;5.63;;;;;;;;;;6229730;23;20008;-70
2022/07/23 09:05:34;;;;;;;5.95;5.18;;;;;;;;;;6227710;23;20087;-71
2022/07/23 09:08:07;;;;;;;5.03;4.63;;;;;;;;;;6229030;23;20067;-70
2022/07/23 09:10:48;;;;;;;5.65;4.88;;;;;;;;;;6229900;23;20019;-71
2022/07/23 09:13:30;;;;;;;7.88;5.30;;;;;;;;;;6229154;23;20107;-71
2022/07/23 09:15:57;;;;;;;5.53;5.00;;;;;;;;;;6228346;23;20000;-73
2022/07/23 09:18:50;;;;;;;6.22;5.63;;;;;;;;;;6228721;23;20008;-71
2022/07/23 09:21:25;;;;;;;7.07;5.43;;;;;;;;;;6221622;23;20000;-71
2022/07/23 09:23:51;;;;;;;6.25;5.15;;;;;;;;;;6229401;23;20083;-74
2022/07/23 09:26:18;;;;;;;5.55;5.10;;;;;;;;;;6229015;23;20000;-74
2022/07/23 09:28:52;;;;;;;5.15;4.65;;;;;;;;;;6228563;23;20113;-75
2022/07/23 09:31:19;;;;;;;4.93;4.43;;;;;;;;;;6227874;23;20462;-73
2022/07/23 09:33:45;;;;;;;5.60;4.75;;;;;;;;;;6227120;23;20000;-74
2022/07/23 09:36:11;;;;;;;5.63;4.88;;;;;;;;;;6229054;23;20012;-75
2022/07/23 09:38:48;;;;;;;6.95;4.55;;;;;;;;;;6229269;23;20023;-73
2022/07/23 09:41:14;;;;;;;7.45;4.82;;;;;;;;;;6228866;23;20421;-73
2022/07/23 09:43:40;;;;;;;7.75;4.65;;;;;;;;;;6228478;23;20347;-72
2022/07/23 09:46:20;;;;;;;8.10;4.57;;;;;;;;;;6200873;23;20061;-73
2022/07/23 09:48:51;;;;;;;5.93;4.43;;;;;;;;;;6229270;23;20004;-73
2022/07/23 09:53:53;;;;;;;4.90;4.30;;;;;;;;;;6240185;23;20203;-74
2022/07/23 09:56:20;;;;;;;5.68;4.63;;;;;;;;;;6229702;22;20008;-74
2022/07/23 09:59:00;;;;;;;5.00;4.50;;;;;;;;;;6231575;23;20470;-74
2022/07/23 10:01:28;;;;;;;5.88;4.35;;;;;;;;;;6229863;23;20392;-72
2022/07/23 10:03:54;;;;;;;5.25;4.60;;;;;;;;;;6203787;23;20008;-74
2022/07/23 10:06:20;;;;;;;6.88;4.43;;;;;;;;;;6230712;23;20000;-74
2022/07/23 10:08:48;;;;;;;5.18;4.18;;;;;;;;;;6231346;23;20001;-74
2022/07/23 10:11:14;;;;;;;6.78;4.38;;;;;;;;;;6231284;23;20008;-74
2022/07/23 10:13:59;;;;;;;7.55;4.40;;;;;;;;;;6229641;23;20082;-73
2022/07/23 10:16:25;;;;;;;6.25;4.80;;;;;;;;;;6230446;23;20008;-75
2022/07/23 10:18:52;;;;;;;5.82;4.50;;;;;;;;;;6231172;23;20062;-74
2022/07/23 10:21:42;;;;;;;8.38;4.43;;;;;;;;;;6231506;23;20008;-75
2022/07/23 10:24:24;;;;;;;4.72;3.83;;;;;;;;;;6215171;23;20034;-72
2022/07/23 10:27:00;;;;;;;4.55;4.15;;;;;;;;;;6203714;23;20451;-75
2022/07/23 10:29:42;;;;;;;5.70;4.07;;;;;;;;;;6229410;23;20035;-74
2022/07/23 10:32:17;;;;;;;6.22;4.47;;;;;;;;;;6230820;23;20478;-71
2022/07/23 10:34:59;;;;;;;7.32;4.35;;;;;;;;;;6228490;23;20761;-71
2022/07/23 10:37:25;;;;;;;5.15;4.00;;;;;;;;;;6230725;23;20495;-73
2022/07/23 10:40:30;;;;;;;4.35;3.95;;;;;;;;;;6231045;23;20000;-70
2022/07/23 10:42:59;;;;;;;5.05;4.32;;;;;;;;;;6108235;23;20485;-72
2022/07/23 10:45:36;;;;;;;4.63;4.22;;;;;;;;;;6109221;23;20013;-74
2022/07/23 10:48:13;;;;;;;6.05;4.60;;;;;;;;;;6178907;23;20004;-72
2022/07/23 10:50:40;;;;;;;5.70;4.13;;;;;;;;;;6231822;23;20000;-73
2022/07/23 10:53:11;;;;;;;6.60;3.95;;;;;;;;;;6230871;23;20001;-72
2022/07/23 10:55:37;;;;;;;;;;;;;;;;;;6233230;22;20008;-71
2022/07/23 10:58:04;;;;;;;4.82;4.40;;;;;;;;;;6233763;23;19908;-72
2022/07/23 11:00:31;;;;;;;6.80;3.97;;;;;;;;;;6231061;23;20003;-73
2022/07/23 11:02:58;;;;;;;5.93;3.95;;;;;;;;;;6233323;23;20325;-73
2022/07/23 11:05:42;;;;;;;9.48;4.25;;;;;;;;;;6230752;23;20031;-73
2022/07/23 11:08:11;;;;;;;5.78;4.63;;;;;;;;;;6230052;23;20357;-72
2022/07/23 11:10:38;;;;;;;5.50;4.05;;;;;;;;;;6231178;23;20008;-73
2022/07/23 11:13:22;;;;;;;5.20;4.13;;;;;;;;;;6227609;23;20437;-74
2022/07/23 11:16:08;;;;;;;7.03;4.28;;;;;;;;;;6230397;23;20004;-73
2022/07/23 11:18:41;;;;;;;4.70;4.18;;;;;;;;;;6230021;23;20047;-72
2022/07/23 11:21:31;;;;;;;4.40;4.00;;;;;;;;;;6230456;23;20133;-73
2022/07/23 11:23:57;;;;;;;5.25;4.07;;;;;;;;;;6230306;23;20531;-73
2022/07/23 11:26:44;;;;;;;5.80;4.43;;;;;;;;;;6226295;23;20004;-70
2022/07/23 11:29:25;;;;;;;5.30;4.20;;;;;;;;;;6226143;23;20012;-73
2022/07/23 11:32:12;;;;;;;6.60;4.25;;;;;;;;;;6228353;23;20008;-71
2022/07/23 11:34:42;;;;;;;5.90;4.38;;;;;;;;;;6208461;23;20011;-72
2022/07/23 11:37:12;;;;;;;4.88;4.47;;;;;;;;;;6229297;23;20082;-72
2022/07/23 11:39:39;;;;;;;5.47;4.78;;;;;;;;;;6226968;23;20004;-71
2022/07/23 11:42:06;;;;;;;4.80;4.40;;;;;;;;;;6229872;23;20008;-72
2022/07/23 11:44:35;;;;;;;4.72;4.32;;;;;;;;;;6229421;23;20015;-73
2022/07/23 11:47:06;;;;;;;5.00;4.45;;;;;;;;;;6228815;23;20088;-72
2022/07/23 11:49:32;;;;;;;6.00;5.38;;;;;;;;;;6229069;23;20761;-72
2022/07/23 11:52:04;;;;;;;4.82;4.32;;;;;;;;;;6230048;23;20014;-70
2022/07/23 11:54:31;;;;;;;5.18;4.50;;;;;;;;;;6228286;23;20008;-71
2022/07/23 11:56:58;;;;;;;4.70;4.30;;;;;;;;;;6229957;22;20008;-73
2022/07/23 11:59:25;;;;;;;5.88;4.38;;;;;;;;;;6229169;23;20000;-72
2022/07/23 12:02:01;;;;;;;4.82;4.43;;;;;;;;;;6197787;23;20008;-71
2022/07/23 12:04:42;;;;;;;4.65;4.22;;;;;;;;;;6229380;23;20054;-73
2022/07/23 12:07:08;;;;;;;;;;;;;;;;;;6229766;23;20014;-72
2022/07/23 12:09:35;;;;;;;5.22;4.68;;;;;;;;;;6200633;23;19919;-69
2022/07/23 12:12:01;;;;;;;5.38;4.88;;;;;;;;;;6229445;23;20008;-70
2022/07/23 12:14:28;;;;;;;5.03;4.60;;;;;;;;;;6229264;23;20008;-70
2022/07/23 12:17:10;;;;;;;6.15;4.68;;;;;;;;;;6228909;23;20046;-67
2022/07/23 12:19:36;;;;;;;5.45;4.43;;;;;;;;;;6229167;23;20014;-69
2022/07/23 12:22:02;;;;;;;5.30;4.43;;;;;;;;;;6227042;23;20001;-72
2022/07/23 12:24:29;;;;;;;4.95;4.55;;;;;;;;;;6228881;23;20034;-73
2022/07/23 12:27:11;;;;;;;5.00;4.20;;;;;;;;;;6229307;23;20591;-67
2022/07/23 12:29:37;;;;;;;4.72;4.32;;;;;;;;;;6228169;23;20092;-68
2022/07/23 12:32:03;;;;;;;5.30;4.80;;;;;;;;;;6229766;23;20287;-67
2022/07/23 12:34:29;;;;;;;5.65;4.68;;;;;;;;;;6229608;23;20008;-71
2022/07/23 12:36:55;;;;;;;4.65;4.28;;;;;;;;;;6227572;23;20010;-67
2022/07/23 12:39:31;;;;;;;4.50;4.10;;;;;;;;;;6229350;23;20008;-67
2022/07/23 12:41:57;;;;;;;4.88;4.47;;;;;;;;;;6228429;23;20011;-67
2022/07/23 12:44:24;;;;;;;4.60;4.20;;;;;;;;;;6228600;23;20004;-67
2022/07/23 12:46:51;;;;;;;5.15;4.65;;;;;;;;;;6226069;23;20003;-68
2022/07/23 12:49:27;;;;;;;5.00;4.50;;;;;;;;;;6229274;23;20450;-67
2022/07/23 12:51:53;;;;;;;7.00;4.88;;;;;;;;;;6230812;23;20004;-68
2022/07/23 12:54:27;;;;;;;5.35;4.95;;;;;;;;;;6231722;23;19997;-69
2022/07/23 12:56:53;;;;;;;6.05;5.03;;;;;;;;;;6226104;22;20368;-68
2022/07/23 12:59:20;;;;;;;5.55;4.15;;;;;;;;;;6228801;23;20660;-68
2022/07/23 13:01:54;;;;;;;4.97;4.57;;;;;;;;;;6230089;23;20010;-68
2022/07/23 13:04:22;;;;;;;6.07;5.22;;;;;;;;;;6229018;23;20010;-68
2022/07/23 13:06:49;;;;;;;5.22;4.82;;;;;;;;;;6228901;23;20324;-68
2022/07/23 13:09:17;;;;;;;4.85;4.45;;;;;;;;;;6199873;23;20046;-67
2022/07/23 13:11:45;;;;;;;4.90;4.50;;;;;;;;;;6227226;23;20004;-69
2022/07/23 13:14:12;;;;;;;5.40;4.97;;;;;;;;;;6229044;23;20511;-68
2022/07/23 13:16:38;;;;;;;4.82;4.43;;;;;;;;;;6202172;23;20539;-68
2022/07/23 13:19:04;;;;;;;7.28;4.70;;;;;;;;;;6226860;23;20091;-69
2022/07/23 13:21:30;;;;;;;6.57;4.63;;;;;;;;;;6229397;23;20004;-68
2022/07/23 13:23:57;;;;;;;5.22;4.72;;;;;;;;;;6228077;23;20150;-69
2022/07/23 13:26:24;;;;;;;5.53;4.68;;;;;;;;;;6229561;23;20028;-69
2022/07/23 13:28:50;;;;;;;5.57;4.82;;;;;;;;;;6229270;23;20620;-69
2022/07/23 13:31:16;;;;;;;8.13;5.10;;;;;;;;;;6227438;23;20004;-68
2022/07/23 13:33:43;;;;;;;6.35;4.97;;;;;;;;;;6229160;23;19996;-68
2022/07/23 13:36:09;;;;;;;5.28;4.85;;;;;;;;;;6228287;23;20011;-68
2022/07/23 13:38:35;;;;;;;6.32;5.32;;;;;;;;;;6229081;23;20055;-69
2022/07/23 13:41:03;;;;;;;5.43;4.90;;;;;;;;;;6226653;23;20004;-68
2022/07/23 13:43:29;;;;;;;5.75;5.18;;;;;;;;;;6229109;23;20012;-68
2022/07/23 13:45:55;;;;;;;5.32;4.88;;;;;;;;;;6228366;23;20087;-69
2022/07/23 13:48:22;;;;;;;4.65;4.30;;;;;;;;;;6229247;23;20324;-68
2022/07/23 13:50:48;;;;;;;4.93;4.53;;;;;;;;;;6228675;23;20515;-68
2022/07/23 13:53:16;;;;;;;5.68;4.95;;;;;;;;;;6227349;23;20436;-69
2022/07/23 13:55:43;;;;;;;7.40;4.90;;;;;;;;;;6228403;22;20000;-68
2022/07/23 13:58:10;;;;;;;5.10;4.70;;;;;;;;;;6225324;23;20091;-68
2022/07/23 14:00:37;;;;;;;5.38;4.88;;;;;;;;;;6227983;23;20313;-69
2022/07/23 14:03:04;;;;;;;5.55;4.75;;;;;;;;;;6227156;23;20008;-70
2022/07/23 14:05:30;;;;;;;5.25;4.63;;;;;;;;;;6227286;23;20004;-70
2022/07/23 14:07:56;;;;;;;5.38;4.57;;;;;;;;;;6225530;23;20008;-68
2022/07/23 14:10:23;;;;;;;5.78;4.43;;;;;;;;;;6227822;23;20432;-69
2022/07/23 14:12:50;;;;;;;5.05;4.35;;;;;;;;;;6225668;23;20776;-69
2022/07/23 14:15:17;;;;;;;8.60;4.65;;;;;;;;;;6228437;23;20004;-68
2022/07/23 14:17:44;;;;;;;6.60;4.70;;;;;;;;;;6227873;23;20023;-69
2022/07/23 14:20:11;;;;;;;4.78;4.38;;;;;;;;;;6228682;23;20074;-69
2022/07/23 14:22:38;;;;;;;5.00;4.38;;;;;;;;;;6227609;23;20000;-70
2022/07/23 14:25:05;;;;;;;4.50;4.10;;;;;;;;;;6226975;23;20062;-69
2022/07/23 14:27:31;;;;;;;4.55;4.15;;;;;;;;;;6228450;23;20589;-71
2022/07/23 14:29:58;;;;;;;4.82;4.43;;;;;;;;;;6228422;23;20412;-69
2022/07/23 14:32:24;;;;;;;4.75;4.35;;;;;;;;;;6228852;23;20000;-70
2022/07/23 14:34:51;;;;;;;4.90;4.50;;;;;;;;;;6228247;23;20010;-69
2022/07/23 14:37:17;;;;;;;5.07;4.57;;;;;;;;;;6199702;23;20016;-70
2022/07/23 14:39:44;;;;;;;4.65;4.18;;;;;;;;;;6228780;23;20008;-70
2022/07/23 14:42:10;;;;;;;4.88;4.47;;;;;;;;;;6228968;23;20028;-70
2022/07/23 14:44:37;;;;;;;6.57;5.03;;;;;;;;;;6230501;23;20218;-70
2022/07/23 14:47:04;;;;;;;5.45;4.90;;;;;;;;;;6230001;23;20004;-68
2022/07/23 14:49:30;;;;;;;5.13;4.68;;;;;;;;;;6230563;23;20103;-68